createdAt,value
2019-04-20T00:01:25.721Z,12.70
2019-04-20T00:02:25.359Z,12.70
2019-04-20T00:03:37.619Z,12.70
2019-04-20T00:04:37.405Z,12.80
2019-04-20T00:05:41.795Z,12.80
2019-04-20T00:06:50.957Z,12.80
2019-04-20T00:07:52.313Z,12.70
2019-04-20T00:08:59.929Z,12.80
2019-04-20T00:10:09.861Z,12.70
2019-04-20T00:11:17.270Z,12.70
2019-04-20T00:12:22.109Z,12.60
2019-04-20T00:13:33.112Z,12.60
2019-04-20T00:14:32.135Z,12.60
2019-04-20T00:15:34.737Z,12.60
2019-04-20T00:16:39.891Z,12.60
2019-04-20T00:17:50.847Z,12.70
2019-04-20T00:18:55.426Z,12.70
2019-04-20T00:19:58.993Z,12.70
2019-04-20T00:21:22.562Z,12.60
2019-04-20T00:22:44.262Z,12.60
2019-04-20T00:23:48.052Z,12.50
2019-04-20T00:25:38.639Z,12.60
2019-04-20T00:27:04.962Z,12.60
2019-04-20T00:28:16.115Z,12.60
2019-04-20T00:29:22.697Z,12.60
2019-04-20T00:30:32.443Z,12.60
2019-04-20T00:31:30.763Z,12.60
2019-04-20T00:32:42.580Z,12.60
2019-04-20T00:33:48.394Z,12.60
2019-04-20T00:34:41.688Z,12.70
2019-04-20T00:35:46.406Z,12.70
2019-04-20T00:36:51.957Z,12.70
2019-04-20T00:37:57.048Z,12.70
2019-04-20T00:39:05.757Z,12.60
2019-04-20T00:40:09.905Z,12.60
2019-04-20T00:41:17.759Z,12.70
2019-04-20T00:42:32.450Z,12.70
2019-04-20T00:43:32.294Z,12.70
2019-04-20T00:44:38.112Z,12.70
2019-04-20T00:45:46.891Z,12.60
2019-04-20T00:47:00.996Z,12.60
2019-04-20T00:47:59.565Z,12.60
2019-04-20T00:49:15.168Z,12.60
2019-04-20T00:50:25.693Z,12.60
2019-04-20T00:51:39.261Z,12.60
2019-04-20T00:52:31.198Z,12.60
2019-04-20T00:53:32.498Z,12.60
2019-04-20T00:54:30.425Z,12.50
2019-04-20T00:55:36.066Z,12.50
2019-04-20T00:56:41.310Z,12.50
2019-04-20T00:57:51.891Z,12.60
2019-04-20T00:59:06.155Z,12.50
2019-04-20T01:00:31.338Z,12.50
2019-04-20T01:01:43.668Z,12.50
2019-04-20T01:02:42.262Z,12.50
2019-04-20T01:03:52.034Z,12.50
2019-04-20T01:04:57.946Z,12.50
2019-04-20T01:06:36.627Z,12.50
2019-04-20T01:07:41.996Z,12.60
2019-04-20T01:08:55.059Z,12.60
2019-04-20T01:10:05.374Z,12.60
2019-04-20T01:11:10.265Z,12.60
2019-04-20T01:12:20.539Z,12.60
2019-04-20T01:13:23.885Z,12.60
2019-04-20T01:14:37.979Z,12.60
2019-04-20T01:15:43.796Z,12.60
2019-04-20T01:16:47.382Z,12.60
2019-04-20T01:17:46.159Z,12.60
2019-04-20T01:18:50.605Z,12.60
2019-04-20T01:19:55.012Z,12.50
2019-04-20T01:21:06.869Z,12.50
2019-04-20T01:22:13.602Z,12.50
2019-04-20T01:23:40.487Z,12.40
2019-04-20T01:25:06.603Z,12.40
2019-04-20T01:28:07.689Z,12.30
2019-04-20T01:29:29.466Z,12.30
2019-04-20T01:33:56.307Z,12.10
2019-04-20T01:38:54.742Z,12.00
2019-04-20T01:41:30.793Z,12.00
2019-04-20T01:44:35.375Z,12.00
2019-04-20T01:45:52.315Z,12.10
2019-04-20T01:47:08.280Z,12.00
2019-04-20T01:48:28.720Z,12.00
2019-04-20T01:49:41.905Z,12.00
2019-04-20T01:51:08.301Z,12.00
2019-04-20T01:52:23.381Z,11.90
2019-04-20T01:53:50.466Z,11.90
2019-04-20T01:55:33.673Z,11.90
2019-04-20T01:56:47.704Z,11.90
2019-04-20T01:59:54.287Z,12.00
2019-04-20T02:01:25.092Z,12.00
2019-04-20T02:04:46.061Z,12.00
2019-04-20T02:06:07.416Z,12.00
2019-04-20T02:07:18.407Z,12.00
2019-04-20T02:08:35.835Z,12.00
2019-04-20T02:09:58.262Z,11.90
2019-04-20T02:11:18.683Z,11.90
2019-04-20T02:12:33.837Z,11.90
2019-04-20T02:13:51.624Z,11.90
2019-04-20T02:15:06.110Z,11.90
2019-04-20T02:16:28.886Z,11.90
2019-04-20T02:17:48.116Z,11.90
2019-04-20T02:19:13.787Z,11.90
2019-04-20T02:20:40.153Z,11.90
2019-04-20T02:21:51.458Z,11.90
2019-04-20T02:23:08.941Z,11.80
2019-04-20T02:24:12.547Z,11.80
2019-04-20T02:25:29.060Z,11.80
2019-04-20T02:26:45.129Z,11.80
2019-04-20T02:28:20.363Z,11.80
2019-04-20T02:29:43.040Z,11.80
2019-04-20T02:31:15.115Z,11.80
2019-04-20T02:32:23.318Z,11.80
2019-04-20T02:33:47.471Z,11.70
2019-04-20T02:36:53.202Z,11.60
2019-04-20T02:39:40.680Z,11.50
2019-04-20T02:42:13.336Z,11.40
2019-04-20T02:46:22.552Z,11.40
2019-04-20T02:47:21.627Z,11.40
2019-04-20T02:48:45.893Z,11.40
2019-04-20T02:51:14.880Z,11.40
2019-04-20T02:54:02.241Z,11.30
2019-04-20T02:55:09.202Z,11.20
2019-04-20T02:56:31.685Z,11.20
2019-04-20T02:57:47.773Z,11.20
2019-04-20T02:59:31.545Z,11.20
2019-04-20T03:00:12.455Z,11.20
2019-04-20T03:01:29.436Z,11.20
2019-04-20T03:02:34.585Z,11.20
2019-04-20T03:03:46.947Z,11.20
2019-04-20T03:05:12.240Z,11.10
2019-04-20T03:06:26.343Z,11.10
2019-04-20T03:07:53.895Z,11.10
2019-04-20T03:09:15.282Z,11.00
2019-04-20T03:10:36.400Z,10.90
2019-04-20T03:11:58.287Z,10.80
2019-04-20T03:13:08.056Z,10.80
2019-04-20T03:14:21.878Z,10.80
2019-04-20T03:15:44.470Z,10.80
2019-04-20T03:17:01.464Z,10.80
2019-04-20T03:18:14.984Z,10.70
2019-04-20T03:19:28.827Z,10.70
2019-04-20T03:20:55.058Z,10.70
2019-04-20T03:22:13.679Z,10.70
2019-04-20T03:23:36.138Z,10.80
2019-04-20T03:24:51.392Z,10.80
2019-04-20T03:26:31.222Z,10.80
2019-04-20T03:27:41.033Z,10.80
2019-04-20T03:29:15.944Z,10.70
2019-04-20T03:31:25.086Z,10.70
2019-04-20T03:32:38.328Z,10.80
2019-04-20T03:33:51.470Z,10.70
2019-04-20T03:36:23.172Z,10.70
2019-04-20T03:37:34.721Z,10.80
2019-04-20T03:38:45.097Z,10.80
2019-04-20T03:39:59.250Z,10.70
2019-04-20T03:41:09.539Z,10.70
2019-04-20T03:42:16.495Z,10.70
2019-04-20T03:43:32.875Z,10.70
2019-04-20T03:44:56.531Z,10.70
2019-04-20T03:46:10.607Z,10.70
2019-04-20T03:47:35.875Z,10.70
2019-04-20T03:49:01.122Z,10.70
2019-04-20T03:50:26.066Z,10.80
2019-04-20T03:51:40.228Z,10.80
2019-04-20T03:56:02.209Z,10.70
2019-04-20T03:59:11.621Z,10.70
2019-04-20T04:04:27.433Z,10.70
2019-04-20T04:05:46.898Z,10.60
2019-04-20T04:06:55.907Z,10.60
2019-04-20T04:08:19.189Z,10.60
2019-04-20T04:09:37.038Z,10.60
2019-04-20T04:11:04.801Z,10.50
2019-04-20T04:12:12.227Z,10.40
2019-04-20T04:13:20.933Z,10.50
2019-04-20T04:14:37.114Z,10.40
2019-04-20T04:15:59.333Z,10.30
2019-04-20T04:17:13.287Z,10.30
2019-04-20T04:18:35.327Z,10.30
2019-04-20T04:19:54.782Z,10.30
2019-04-20T04:21:10.000Z,10.30
2019-04-20T04:22:41.980Z,10.30
2019-04-20T04:23:56.123Z,10.30
2019-04-20T04:25:12.844Z,10.30
2019-04-20T04:26:32.302Z,10.30
2019-04-20T04:27:56.092Z,10.30
2019-04-20T04:29:18.106Z,10.30
2019-04-20T04:30:26.342Z,10.30
2019-04-20T04:31:59.450Z,10.30
2019-04-20T04:33:37.882Z,10.30
2019-04-20T04:34:22.980Z,10.30
2019-04-20T04:35:32.356Z,10.30
2019-04-20T04:37:01.949Z,10.30
2019-04-20T04:38:23.964Z,10.30
2019-04-20T04:39:36.954Z,10.30
2019-04-20T04:41:06.564Z,10.30
2019-04-20T04:42:16.710Z,10.30
2019-04-20T04:43:35.942Z,10.30
2019-04-20T04:44:39.978Z,10.30
2019-04-20T04:45:46.971Z,10.30
2019-04-20T04:47:06.408Z,10.40
2019-04-20T04:48:27.634Z,10.40
2019-04-20T04:49:41.274Z,10.50
2019-04-20T04:51:02.425Z,10.50
2019-04-20T04:52:19.214Z,10.60
2019-04-20T04:53:45.230Z,10.60
2019-04-20T04:54:56.612Z,10.70
2019-04-20T04:56:13.183Z,10.80
2019-04-20T04:57:26.351Z,10.90
2019-04-20T04:58:42.627Z,11.20
2019-04-20T04:59:59.443Z,11.70
2019-04-20T05:01:20.601Z,12.10
2019-04-20T05:02:38.039Z,12.50
2019-04-20T05:04:17.481Z,12.90
2019-04-20T05:05:49.376Z,13.20
2019-04-20T05:06:59.743Z,13.60
2019-04-20T05:08:12.783Z,14.00
2019-04-20T05:09:23.784Z,14.40
2019-04-20T05:10:41.528Z,14.70
2019-04-20T05:12:05.368Z,15.00
2019-04-20T05:13:15.791Z,15.20
2019-04-20T05:14:41.826Z,15.20
2019-04-20T05:16:06.547Z,15.40
2019-04-20T05:17:20.706Z,15.60
2019-04-20T05:18:51.442Z,15.60
2019-04-20T05:20:03.632Z,15.80
2019-04-20T05:21:26.094Z,16.20
2019-04-20T05:22:46.692Z,16.50
2019-04-20T05:24:07.299Z,16.60
2019-04-20T05:25:52.003Z,16.80
2019-04-20T05:27:30.067Z,17.00
2019-04-20T05:28:39.754Z,17.20
2019-04-20T05:29:44.694Z,17.60
2019-04-20T05:31:03.565Z,18.00
2019-04-20T05:32:33.750Z,18.00
2019-04-20T05:34:03.448Z,18.00
2019-04-20T05:35:16.408Z,18.20
2019-04-20T05:36:38.445Z,18.50
2019-04-20T05:39:18.557Z,18.60
2019-04-20T05:40:29.254Z,18.60
2019-04-20T05:41:44.079Z,18.80
2019-04-20T05:44:49.897Z,19.20
2019-04-20T05:46:08.679Z,19.50
2019-04-20T05:47:24.045Z,19.50
2019-04-20T05:48:45.880Z,19.70
2019-04-20T05:49:54.550Z,19.90
2019-04-20T05:51:26.917Z,19.90
2019-04-20T05:52:42.881Z,19.90
2019-04-20T05:53:54.793Z,20.00
2019-04-20T05:55:09.923Z,20.00
2019-04-20T05:56:30.700Z,20.30
2019-04-20T05:57:50.456Z,20.50
2019-04-20T05:58:59.613Z,20.60
2019-04-20T06:00:32.077Z,20.80
2019-04-20T06:01:47.813Z,20.90
2019-04-20T06:02:54.881Z,21.00
2019-04-20T06:04:17.418Z,20.90
2019-04-20T06:05:36.726Z,21.10
2019-04-20T06:06:55.402Z,21.10
2019-04-20T06:08:20.462Z,21.00
2019-04-20T06:09:28.559Z,21.10
2019-04-20T06:10:45.190Z,21.10
2019-04-20T06:12:15.749Z,21.00
2019-04-20T06:13:40.707Z,21.10
2019-04-20T06:15:17.550Z,21.50
2019-04-20T06:19:53.162Z,22.10
2019-04-20T06:21:17.251Z,22.40
2019-04-20T06:22:59.943Z,22.60
2019-04-20T06:26:11.037Z,23.20
2019-04-20T06:27:09.117Z,23.00
2019-04-20T06:28:24.565Z,22.90
2019-04-20T06:29:48.366Z,22.70
2019-04-20T06:30:59.533Z,22.10
2019-04-20T06:32:29.597Z,21.90
2019-04-20T06:33:53.341Z,21.90
2019-04-20T06:34:53.548Z,22.10
2019-04-20T06:36:23.204Z,22.30
2019-04-20T06:37:39.180Z,22.00
2019-04-20T06:39:00.519Z,22.10
2019-04-20T06:40:23.962Z,21.80
2019-04-20T06:41:32.532Z,22.00
2019-04-20T06:42:51.995Z,21.80
2019-04-20T06:44:28.957Z,22.10
2019-04-20T06:45:46.031Z,22.20
2019-04-20T06:47:04.132Z,22.60
2019-04-20T06:48:21.674Z,22.30
2019-04-20T06:49:33.419Z,22.70
2019-04-20T06:53:01.560Z,22.80
2019-04-20T06:54:44.861Z,22.90
2019-04-20T06:57:52.902Z,22.90
2019-04-20T06:59:19.868Z,23.70
2019-04-20T07:00:43.961Z,24.20
2019-04-20T07:02:11.714Z,23.70
2019-04-20T07:03:46.413Z,23.60
2019-04-20T07:05:00.234Z,23.50
2019-04-20T07:06:35.317Z,23.90
2019-04-20T07:07:48.055Z,24.10
2019-04-20T07:09:19.994Z,24.30
2019-04-20T07:10:39.484Z,24.50
2019-04-20T07:11:58.092Z,24.50
2019-04-20T07:13:17.795Z,24.00
2019-04-20T07:16:37.948Z,23.70
2019-04-20T07:18:08.117Z,23.50
2019-04-20T07:19:15.329Z,23.20
2019-04-20T07:20:55.368Z,23.60
2019-04-20T07:24:04.696Z,24.10
2019-04-20T07:25:02.361Z,24.00
2019-04-20T07:26:12.853Z,24.00
2019-04-20T07:27:12.259Z,24.10
2019-04-20T07:28:24.500Z,24.20
2019-04-20T07:29:25.994Z,24.20
2019-04-20T07:30:30.887Z,24.10
2019-04-20T07:31:36.805Z,24.50
2019-04-20T07:32:48.391Z,24.40
2019-04-20T07:33:52.481Z,24.40
2019-04-20T07:34:56.792Z,24.20
2019-04-20T07:36:04.192Z,24.00
2019-04-20T07:37:40.768Z,23.70
2019-04-20T07:38:31.211Z,23.70
2019-04-20T07:39:34.997Z,23.70
2019-04-20T07:40:35.518Z,23.80
2019-04-20T07:41:47.864Z,23.90
2019-04-20T07:42:51.835Z,23.70
2019-04-20T07:44:03.522Z,23.60
2019-04-20T07:45:08.362Z,23.50
2019-04-20T07:46:10.251Z,23.50
2019-04-20T07:47:13.778Z,23.60
2019-04-20T07:48:30.490Z,24.00
2019-04-20T07:49:25.889Z,24.00
2019-04-20T07:50:25.111Z,23.60
2019-04-20T07:51:23.112Z,23.40
2019-04-20T07:52:33.823Z,23.40
2019-04-20T07:53:50.281Z,23.60
2019-04-20T07:55:18.829Z,24.10
2019-04-20T07:56:04.690Z,24.30
2019-04-20T07:57:11.496Z,24.80
2019-04-20T07:58:09.847Z,24.80
2019-04-20T07:59:14.032Z,24.60
2019-04-20T08:00:44.966Z,24.80
2019-04-20T08:01:56.130Z,24.50
2019-04-20T08:03:12.952Z,24.40
2019-04-20T08:04:22.730Z,24.30
2019-04-20T08:05:30.931Z,24.40
2019-04-20T08:06:37.920Z,24.60
2019-04-20T08:07:46.438Z,24.80
2019-04-20T08:08:59.293Z,24.90
2019-04-20T08:09:55.586Z,25.10
2019-04-20T08:11:17.937Z,24.90
2019-04-20T08:12:26.917Z,24.60
2019-04-20T08:14:39.944Z,24.10
2019-04-20T08:15:49.214Z,24.40
2019-04-20T08:17:08.277Z,24.40
2019-04-20T08:18:06.372Z,24.30
2019-04-20T08:18:58.579Z,24.50
2019-04-20T08:20:05.717Z,24.80
2019-04-20T08:21:16.713Z,25.00
2019-04-20T08:22:24.578Z,25.00
2019-04-20T08:23:28.592Z,25.00
2019-04-20T08:24:28.810Z,24.90
2019-04-20T08:25:34.931Z,25.00
2019-04-20T08:26:30.434Z,24.90
2019-04-20T08:27:48.774Z,25.10
2019-04-20T08:29:02.504Z,25.20
2019-04-20T08:30:32.237Z,25.20
2019-04-20T08:31:55.776Z,24.90
2019-04-20T08:32:58.529Z,25.00
2019-04-20T08:34:24.723Z,25.10
2019-04-20T08:35:25.964Z,25.30
2019-04-20T08:36:33.162Z,25.40
2019-04-20T08:37:32.086Z,25.50
2019-04-20T08:39:57.193Z,25.60
2019-04-20T08:40:53.943Z,25.60
2019-04-20T08:42:03.783Z,25.50
2019-04-20T08:44:38.077Z,25.70
2019-04-20T08:45:26.630Z,25.90
2019-04-20T08:46:25.944Z,25.90
2019-04-20T08:47:37.928Z,26.10
2019-04-20T08:48:43.423Z,26.20
2019-04-20T08:50:09.437Z,25.80
2019-04-20T08:51:07.253Z,25.70
2019-04-20T08:52:41.250Z,25.60
2019-04-20T08:53:25.976Z,25.60
2019-04-20T08:54:26.158Z,25.20
2019-04-20T08:55:33.487Z,25.20
2019-04-20T08:56:35.162Z,25.20
2019-04-20T08:57:29.295Z,25.20
2019-04-20T08:58:36.235Z,24.90
2019-04-20T08:59:44.377Z,24.80
2019-04-20T09:00:53.663Z,24.90
2019-04-20T09:01:53.505Z,24.70
2019-04-20T09:03:06.235Z,24.90
2019-04-20T09:04:12.739Z,24.70
2019-04-20T09:05:28.212Z,24.50
2019-04-20T09:06:33.628Z,24.40
2019-04-20T09:07:54.162Z,24.50
2019-04-20T09:09:09.684Z,24.70
2019-04-20T09:10:16.446Z,24.80
2019-04-20T09:11:19.655Z,24.60
2019-04-20T09:12:24.320Z,24.60
2019-04-20T09:13:25.969Z,24.70
2019-04-20T09:14:22.100Z,24.90
2019-04-20T09:15:27.802Z,25.10
2019-04-20T09:16:42.399Z,25.20
2019-04-20T09:17:48.452Z,25.10
2019-04-20T09:18:55.544Z,24.90
2019-04-20T09:20:04.155Z,24.90
2019-04-20T09:21:09.778Z,25.10
2019-04-20T09:22:34.205Z,25.10
2019-04-20T09:24:14.932Z,25.20
2019-04-20T09:25:35.285Z,24.80
2019-04-20T09:26:20.494Z,24.80
2019-04-20T09:27:22.821Z,24.90
2019-04-20T09:28:40.523Z,24.80
2019-04-20T09:29:54.635Z,24.60
2019-04-20T09:30:57.189Z,24.90
2019-04-20T09:32:16.975Z,25.10
2019-04-20T09:33:40.189Z,25.30
2019-04-20T09:34:47.840Z,25.30
2019-04-20T09:35:49.573Z,25.00
2019-04-20T09:37:29.394Z,24.80
2019-04-20T09:38:30.506Z,24.40
2019-04-20T09:40:00.929Z,24.10
2019-04-20T09:41:01.306Z,23.90
2019-04-20T09:42:25.057Z,24.00
2019-04-20T09:43:34.743Z,24.20
2019-04-20T09:44:42.875Z,24.20
2019-04-20T09:45:51.337Z,24.10
2019-04-20T09:46:56.746Z,24.30
2019-04-20T09:48:06.770Z,24.60
2019-04-20T09:49:18.662Z,24.80
2019-04-20T09:50:33.391Z,24.90
2019-04-20T09:51:40.077Z,25.00
2019-04-20T09:52:45.690Z,25.20
2019-04-20T09:53:42.929Z,25.30
2019-04-20T09:54:55.197Z,25.40
2019-04-20T09:56:01.919Z,25.30
2019-04-20T09:57:09.356Z,25.40
2019-04-20T09:58:12.563Z,25.00
2019-04-20T09:59:24.940Z,25.00
2019-04-20T10:00:29.149Z,25.00
2019-04-20T10:01:30.345Z,24.80
2019-04-20T10:02:30.981Z,24.40
2019-04-20T10:03:31.186Z,24.20
2019-04-20T10:04:35.664Z,24.20
2019-04-20T10:05:41.204Z,24.00
2019-04-20T10:06:45.734Z,23.80
2019-04-20T10:07:56.032Z,23.70
2019-04-20T10:09:00.423Z,23.90
2019-04-20T10:10:15.965Z,24.00
2019-04-20T10:11:09.855Z,23.90
2019-04-20T10:12:15.585Z,23.80
2019-04-20T10:13:21.465Z,23.80
2019-04-20T10:14:26.927Z,23.70
2019-04-20T10:15:32.948Z,23.80
2019-04-20T10:16:37.875Z,23.80
2019-04-20T10:17:43.572Z,23.70
2019-04-20T10:18:51.839Z,23.50
2019-04-20T10:19:55.576Z,23.60
2019-04-20T10:21:00.085Z,23.60
2019-04-20T10:22:04.713Z,23.70
2019-04-20T10:23:09.403Z,23.70
2019-04-20T10:24:14.647Z,23.60
2019-04-20T10:25:20.458Z,23.50
2019-04-20T10:26:25.070Z,23.40
2019-04-20T10:27:30.672Z,23.30
2019-04-20T10:28:35.179Z,23.20
2019-04-20T10:29:39.796Z,23.10
2019-04-20T10:30:44.469Z,23.10
2019-04-20T10:31:55.013Z,23.10
2019-04-20T10:32:55.747Z,23.00
2019-04-20T10:34:01.684Z,22.90
2019-04-20T10:35:06.646Z,22.90
2019-04-20T10:36:21.973Z,22.60
2019-04-20T10:37:31.546Z,22.60
2019-04-20T10:38:37.690Z,22.60
2019-04-20T10:39:42.840Z,22.50
2019-04-20T10:40:57.234Z,22.50
2019-04-20T10:41:57.635Z,22.60
2019-04-20T10:43:01.128Z,22.60
2019-04-20T10:44:07.043Z,22.60
2019-04-20T10:45:12.738Z,22.60
2019-04-20T10:46:17.394Z,22.60
2019-04-20T10:47:22.993Z,22.50
2019-04-20T10:48:33.969Z,22.60
2019-04-20T10:49:33.757Z,22.50
2019-04-20T10:50:38.948Z,22.60
2019-04-20T10:51:43.980Z,22.60
2019-04-20T10:52:49.997Z,22.60
2019-04-20T10:53:54.646Z,22.70
2019-04-20T10:54:59.033Z,22.60
2019-04-20T10:56:03.534Z,22.60
2019-04-20T10:57:07.969Z,22.60
2019-04-20T10:58:13.641Z,22.70
2019-04-20T10:59:19.372Z,22.80
2019-04-20T11:00:39.716Z,22.70
2019-04-20T11:01:45.566Z,22.70
2019-04-20T11:02:51.297Z,22.70
2019-04-20T11:03:56.586Z,22.50
2019-04-20T11:05:02.451Z,22.50
2019-04-20T11:06:07.135Z,22.50
2019-04-20T11:07:12.504Z,22.50
2019-04-20T11:08:17.117Z,22.50
2019-04-20T11:09:22.678Z,22.50
2019-04-20T11:10:30.262Z,22.50
2019-04-20T11:11:34.208Z,22.50
2019-04-20T11:12:42.232Z,22.50
2019-04-20T11:13:47.924Z,22.50
2019-04-20T11:14:52.401Z,22.50
2019-04-20T11:15:57.007Z,22.60
2019-04-20T11:17:02.620Z,22.70
2019-04-20T11:18:07.251Z,22.80
2019-04-20T11:19:11.729Z,22.90
2019-04-20T11:20:19.065Z,22.80
2019-04-20T11:21:24.706Z,22.80
2019-04-20T11:22:30.552Z,22.70
2019-04-20T11:23:36.238Z,22.70
2019-04-20T11:24:40.780Z,22.70
2019-04-20T11:25:46.409Z,22.70
2019-04-20T11:26:52.119Z,22.60
2019-04-20T11:27:58.558Z,22.60
2019-04-20T11:29:04.209Z,22.60
2019-04-20T11:30:10.112Z,22.60
2019-04-20T11:31:14.516Z,22.60
2019-04-20T11:32:20.240Z,22.60
2019-04-20T11:33:24.864Z,22.60
2019-04-20T11:34:33.298Z,22.60
2019-04-20T11:35:38.079Z,22.60
2019-04-20T11:36:41.421Z,22.60
2019-04-20T11:37:46.842Z,22.60
2019-04-20T11:38:53.058Z,22.60
2019-04-20T11:39:59.075Z,22.50
2019-04-20T11:42:09.967Z,22.60
2019-04-20T11:43:15.627Z,22.60
2019-04-20T11:44:21.339Z,22.60
2019-04-20T11:45:26.736Z,22.70
2019-04-20T11:46:32.358Z,22.70
2019-04-20T11:47:37.701Z,22.70
2019-04-20T11:48:43.276Z,22.60
2019-04-20T11:49:49.236Z,22.60
2019-04-20T11:50:54.013Z,22.60
2019-04-20T11:51:59.487Z,22.60
2019-04-20T11:53:04.019Z,22.70
2019-04-20T11:54:08.463Z,22.70
2019-04-20T11:55:13.194Z,22.80
2019-04-20T11:56:21.239Z,22.80
2019-04-20T11:57:25.046Z,22.70
2019-04-20T11:58:30.362Z,22.70
2019-04-20T11:59:34.993Z,22.60
2019-04-20T12:00:53.822Z,22.60
2019-04-20T12:02:02.373Z,22.60
2019-04-20T12:03:41.370Z,22.70
2019-04-20T12:04:47.116Z,22.70
2019-04-20T12:05:52.970Z,22.80
2019-04-20T12:07:13.040Z,22.80
2019-04-20T12:08:18.666Z,22.80
2019-04-20T12:09:23.099Z,22.80
2019-04-20T12:10:28.355Z,22.70
2019-04-20T12:11:52.728Z,22.70
2019-04-20T12:12:44.379Z,22.70
2019-04-20T12:13:46.833Z,22.70
2019-04-20T12:14:52.496Z,22.80
2019-04-20T12:15:57.066Z,22.80
2019-04-20T12:17:03.794Z,22.80
2019-04-20T12:18:09.584Z,22.90
2019-04-20T12:19:14.718Z,22.90
2019-04-20T12:20:20.848Z,23.00
2019-04-20T12:21:26.469Z,23.00
2019-04-20T12:22:32.349Z,23.10
2019-04-20T12:23:38.157Z,23.10
2019-04-20T12:24:42.646Z,23.00
2019-04-20T12:25:48.080Z,22.90
2019-04-20T12:26:52.701Z,23.00
2019-04-20T12:28:00.590Z,23.00
2019-04-20T12:29:05.694Z,23.00
2019-04-20T12:30:12.319Z,23.00
2019-04-20T12:31:20.487Z,23.00
2019-04-20T12:32:22.856Z,23.00
2019-04-20T12:33:30.552Z,23.00
2019-04-20T12:34:35.281Z,23.00
2019-04-20T12:35:40.333Z,23.10
2019-04-20T12:36:46.951Z,23.10
2019-04-20T12:37:51.588Z,23.10
2019-04-20T12:38:57.211Z,23.00
2019-04-20T12:40:03.079Z,23.10
2019-04-20T12:41:11.486Z,23.10
2019-04-20T12:42:16.905Z,23.10
2019-04-20T12:43:21.618Z,23.10
2019-04-20T12:44:25.956Z,23.10
2019-04-20T12:45:31.571Z,23.10
2019-04-20T12:46:36.128Z,23.20
2019-04-20T12:47:41.507Z,23.30
2019-04-20T12:49:11.830Z,23.20
2019-04-20T12:50:19.260Z,23.20
2019-04-20T12:51:31.352Z,23.20
2019-04-20T12:52:32.336Z,23.20
2019-04-20T12:53:38.260Z,23.20
2019-04-20T12:54:44.559Z,23.20
2019-04-20T12:55:48.940Z,23.20
2019-04-20T12:56:53.410Z,23.20
2019-04-20T12:57:58.625Z,23.30
2019-04-20T12:59:05.517Z,23.30
2019-04-20T13:00:11.919Z,23.30
2019-04-20T13:01:19.338Z,23.30
2019-04-20T13:02:23.188Z,23.30
2019-04-20T13:03:27.710Z,23.20
2019-04-20T13:04:33.228Z,23.20
2019-04-20T13:05:38.169Z,23.20
2019-04-20T13:06:42.965Z,23.20
2019-04-20T13:07:54.523Z,23.20
2019-04-20T13:08:57.467Z,23.30
2019-04-20T13:10:03.542Z,23.30
2019-04-20T13:11:27.095Z,23.40
2019-04-20T13:12:42.476Z,23.40
2019-04-20T13:14:12.419Z,23.50
2019-04-20T13:15:36.426Z,23.40
2019-04-20T13:16:40.948Z,23.40
2019-04-20T13:17:47.980Z,23.40
2019-04-20T13:18:57.234Z,23.20
2019-04-20T13:21:07.293Z,23.20
2019-04-20T13:22:12.925Z,23.20
2019-04-20T13:23:17.378Z,23.20
2019-04-20T13:25:48.756Z,23.10
2019-04-20T13:27:13.220Z,23.10
2019-04-20T13:32:03.347Z,23.20
2019-04-20T13:35:10.030Z,23.20
2019-04-20T13:38:18.261Z,23.30
2019-04-20T13:41:24.531Z,23.30
2019-04-20T13:45:46.764Z,23.30
2019-04-20T13:47:10.707Z,23.30
2019-04-20T13:50:12.395Z,23.10
2019-04-20T13:51:28.724Z,23.00
2019-04-20T13:52:44.769Z,23.00
2019-04-20T13:54:01.785Z,23.00
2019-04-20T13:55:18.809Z,23.10
2019-04-20T13:56:35.446Z,23.10
2019-04-20T13:59:54.068Z,23.10
2019-04-20T14:01:28.930Z,23.10
2019-04-20T14:02:51.033Z,23.00
2019-04-20T14:04:12.759Z,23.10
2019-04-20T14:05:33.208Z,23.10
2019-04-20T14:06:49.287Z,23.20
2019-04-20T14:08:05.436Z,23.20
2019-04-20T14:09:21.612Z,23.20
2019-04-20T14:10:37.711Z,23.20
2019-04-20T14:11:54.363Z,23.20
2019-04-20T14:13:15.659Z,23.20
2019-04-20T14:14:28.995Z,23.10
2019-04-20T14:15:45.084Z,23.00
2019-04-20T14:17:01.193Z,23.00
2019-04-20T14:18:17.374Z,23.00
2019-04-20T14:19:34.813Z,23.00
2019-04-20T14:20:52.069Z,23.00
2019-04-20T14:22:08.670Z,23.00
2019-04-20T14:23:25.239Z,22.90
2019-04-20T14:24:42.694Z,22.90
2019-04-20T14:25:58.925Z,22.90
2019-04-20T14:27:15.274Z,22.90
2019-04-20T14:28:31.533Z,23.00
2019-04-20T14:29:48.712Z,22.90
2019-04-20T14:31:05.804Z,23.00
2019-04-20T14:32:22.883Z,23.00
2019-04-20T14:33:41.320Z,23.00
2019-04-20T14:34:57.054Z,23.00
2019-04-20T14:36:13.042Z,23.00
2019-04-20T14:37:29.034Z,23.00
2019-04-20T14:38:45.421Z,23.00
2019-04-20T14:40:04.088Z,22.90
2019-04-20T14:41:20.723Z,22.80
2019-04-20T14:42:44.552Z,22.90
2019-04-20T14:43:55.245Z,22.90
2019-04-20T14:45:11.862Z,22.80
2019-04-20T14:46:29.478Z,22.90
2019-04-20T14:47:45.842Z,22.90
2019-04-20T14:49:02.896Z,22.90
2019-04-20T14:50:20.095Z,22.90
2019-04-20T14:51:37.507Z,22.90
2019-04-20T14:52:53.741Z,22.90
2019-04-20T14:54:09.706Z,22.90
2019-04-20T14:55:25.855Z,22.90
2019-04-20T14:56:41.646Z,23.00
2019-04-20T14:57:59.942Z,23.00
2019-04-20T14:59:37.835Z,22.90
2019-04-20T15:01:00.473Z,22.90
2019-04-20T15:02:19.461Z,22.80
2019-04-20T15:03:38.720Z,22.80
2019-04-20T15:04:55.062Z,22.80
2019-04-20T15:06:11.788Z,22.80
2019-04-20T15:07:28.830Z,22.70
2019-04-20T15:08:45.018Z,22.80
2019-04-20T15:10:00.921Z,22.90
2019-04-20T15:13:06.012Z,22.70
2019-04-20T15:14:22.802Z,22.80
2019-04-20T15:15:39.333Z,22.80
2019-04-20T15:16:56.345Z,22.90
2019-04-20T15:18:13.445Z,22.90
2019-04-20T15:19:49.489Z,22.80
2019-04-20T15:21:07.620Z,22.80
2019-04-20T15:23:57.697Z,22.70
2019-04-20T15:25:13.746Z,22.70
2019-04-20T15:26:30.624Z,22.70
2019-04-20T15:27:46.446Z,22.60
2019-04-20T15:29:02.357Z,22.60
2019-04-20T15:30:18.543Z,22.60
2019-04-20T15:31:36.310Z,22.60
2019-04-20T15:32:52.248Z,22.60
2019-04-20T15:35:58.308Z,22.60
2019-04-20T15:37:23.324Z,22.60
2019-04-20T15:38:47.290Z,22.60
2019-04-20T15:41:54.897Z,22.60
2019-04-20T15:44:47.395Z,22.60
2019-04-20T15:46:10.843Z,22.50
2019-04-20T15:49:17.902Z,22.40
2019-04-20T15:50:35.895Z,22.40
2019-04-20T15:51:52.140Z,22.40
2019-04-20T15:53:08.742Z,22.40
2019-04-20T15:54:25.454Z,22.40
2019-04-20T15:55:46.717Z,22.50
2019-04-20T15:57:08.378Z,22.50
2019-04-20T15:58:20.666Z,22.40
2019-04-20T15:59:38.169Z,22.40
2019-04-20T16:00:54.774Z,22.40
2019-04-20T16:05:37.686Z,22.40
2019-04-20T16:06:54.939Z,22.40
2019-04-20T16:08:30.314Z,22.30
2019-04-20T16:09:46.365Z,22.30
2019-04-20T16:11:04.612Z,22.30
2019-04-20T16:12:20.705Z,22.30
2019-04-20T16:13:40.336Z,22.30
2019-04-20T16:14:55.505Z,22.30
2019-04-20T16:16:12.112Z,22.10
2019-04-20T16:17:32.698Z,22.10
2019-04-20T16:18:46.641Z,22.10
2019-04-20T16:20:10.522Z,22.00
2019-04-20T16:21:24.944Z,22.00
2019-04-20T16:22:40.533Z,21.90
2019-04-20T16:24:01.138Z,22.00
2019-04-20T16:25:35.710Z,21.90
2019-04-20T16:27:11.636Z,21.90
2019-04-20T16:28:27.927Z,21.90
2019-04-20T16:29:44.353Z,21.90
2019-04-20T16:31:01.501Z,21.80
2019-04-20T16:32:18.821Z,21.80
2019-04-20T16:33:34.606Z,21.80
2019-04-20T16:34:50.725Z,21.80
2019-04-20T16:36:06.624Z,21.80
2019-04-20T16:37:22.504Z,21.80
2019-04-20T16:38:40.190Z,21.80
2019-04-20T16:39:57.053Z,21.70
2019-04-20T16:41:12.734Z,21.70
2019-04-20T16:42:29.934Z,21.70
2019-04-20T16:43:47.872Z,21.60
2019-04-20T16:45:05.347Z,21.60
2019-04-20T16:46:23.647Z,21.60
2019-04-20T16:47:39.811Z,21.60
2019-04-20T16:48:56.904Z,21.60
2019-04-20T16:50:13.334Z,21.50
2019-04-20T16:51:29.366Z,21.50
2019-04-20T16:52:46.493Z,21.50
2019-04-20T16:54:01.596Z,21.50
2019-04-20T16:57:10.631Z,21.40
2019-04-20T17:00:15.620Z,21.40
2019-04-20T17:01:40.691Z,21.40
2019-04-20T17:03:06.934Z,21.30
2019-04-20T17:04:32.113Z,21.30
2019-04-20T17:05:56.016Z,21.20
2019-04-20T17:07:39.295Z,21.20
2019-04-20T17:10:48.834Z,21.10
2019-04-20T17:12:13.112Z,21.10
2019-04-20T17:13:42.202Z,21.10
2019-04-20T17:15:01.641Z,21.10
2019-04-20T17:16:25.914Z,21.00
2019-04-20T17:19:35.427Z,21.00
2019-04-20T17:21:04.460Z,20.90